sensor_id;sensor_type;location;lat;lon;timestamp;P1;durP1;ratioP1;P2;durP2;ratioP2
60257;SDS011;46115;44.484;11.314;2022-07-29T00:03:32;5.93;;;4.38;;
60257;SDS011;46115;44.484;11.314;2022-07-29T00:07:34;6.22;;;4.57;;
60257;SDS011;46115;44.484;11.314;2022-07-29T00:11:37;7.43;;;4.85;;
60257;SDS011;46115;44.484;11.314;2022-07-29T00:15:41;4.90;;;4.35;;
60257;SDS011;46115;44.484;11.314;2022-07-29T00:19:43;6.00;;;4.53;;
60257;SDS011;46115;44.484;11.314;2022-07-29T00:23:46;6.32;;;4.80;;
60257;SDS011;46115;44.484;11.314;2022-07-29T00:27:48;8.40;;;4.60;;
60257;SDS011;46115;44.484;11.314;2022-07-29T00:31:52;6.95;;;4.82;;
60257;SDS011;46115;44.484;11.314;2022-07-29T00:35:55;5.47;;;4.55;;
60257;SDS011;46115;44.484;11.314;2022-07-29T00:39:57;5.85;;;4.43;;
60257;SDS011;46115;44.484;11.314;2022-07-29T00:43:59;6.88;;;4.75;;
60257;SDS011;46115;44.484;11.314;2022-07-29T00:48:04;6.55;;;4.47;;
60257;SDS011;46115;44.484;11.314;2022-07-29T00:52:08;5.70;;;4.50;;
60257;SDS011;46115;44.484;11.314;2022-07-29T00:56:11;5.30;;;4.80;;
60257;SDS011;46115;44.484;11.314;2022-07-29T01:00:14;5.10;;;4.40;;
60257;SDS011;46115;44.484;11.314;2022-07-29T01:04:21;7.40;;;4.60;;
60257;SDS011;46115;44.484;11.314;2022-07-29T01:08:23;5.85;;;4.60;;
60257;SDS011;46115;44.484;11.314;2022-07-29T01:12:26;4.88;;;4.38;;
60257;SDS011;46115;44.484;11.314;2022-07-29T01:16:35;4.95;;;4.35;;
60257;SDS011;46115;44.484;11.314;2022-07-29T01:20:51;6.45;;;4.47;;
60257;SDS011;46115;44.484;11.314;2022-07-29T01:25:12;6.15;;;4.60;;
60257;SDS011;46115;44.484;11.314;2022-07-29T01:29:36;7.65;;;4.50;;
60257;SDS011;46115;44.484;11.314;2022-07-29T01:33:43;8.15;;;4.47;;
60257;SDS011;46115;44.484;11.314;2022-07-29T01:37:51;5.47;;;4.70;;
60257;SDS011;46115;44.484;11.314;2022-07-29T01:42:01;6.47;;;4.50;;
60257;SDS011;46115;44.484;11.314;2022-07-29T01:46:13;9.15;;;5.10;;
60257;SDS011;46115;44.484;11.314;2022-07-29T01:50:19;8.55;;;4.68;;
60257;SDS011;46115;44.484;11.314;2022-07-29T01:54:30;5.10;;;4.60;;
60257;SDS011;46115;44.484;11.314;2022-07-29T01:58:36;7.20;;;4.80;;
60257;SDS011;46115;44.484;11.314;2022-07-29T02:02:44;7.60;;;4.80;;
60257;SDS011;46115;44.484;11.314;2022-07-29T02:06:51;6.68;;;5.15;;
60257;SDS011;46115;44.484;11.314;2022-07-29T02:10:56;6.63;;;4.90;;
60257;SDS011;46115;44.484;11.314;2022-07-29T02:15:02;5.85;;;4.88;;
60257;SDS011;46115;44.484;11.314;2022-07-29T02:19:07;5.32;;;4.68;;
60257;SDS011;46115;44.484;11.314;2022-07-29T02:23:12;7.47;;;5.00;;
60257;SDS011;46115;44.484;11.314;2022-07-29T02:27:19;6.20;;;4.72;;
60257;SDS011;46115;44.484;11.314;2022-07-29T02:31:25;6.20;;;4.80;;
60257;SDS011;46115;44.484;11.314;2022-07-29T02:35:32;5.53;;;4.72;;
60257;SDS011;46115;44.484;11.314;2022-07-29T02:39:35;6.97;;;4.80;;
60257;SDS011;46115;44.484;11.314;2022-07-29T02:43:40;6.82;;;4.63;;
60257;SDS011;46115;44.484;11.314;2022-07-29T02:47:46;5.53;;;4.60;;
60257;SDS011;46115;44.484;11.314;2022-07-29T02:51:54;5.43;;;4.82;;
60257;SDS011;46115;44.484;11.314;2022-07-29T02:56:00;7.68;;;4.90;;
60257;SDS011;46115;44.484;11.314;2022-07-29T03:00:08;6.68;;;5.07;;
60257;SDS011;46115;44.484;11.314;2022-07-29T03:04:13;6.07;;;5.00;;
60257;SDS011;46115;44.484;11.314;2022-07-29T03:08:18;6.35;;;5.00;;
60257;SDS011;46115;44.484;11.314;2022-07-29T03:12:21;6.53;;;5.25;;
60257;SDS011;46115;44.484;11.314;2022-07-29T03:16:25;7.18;;;4.70;;
60257;SDS011;46115;44.484;11.314;2022-07-29T03:20:27;5.07;;;4.57;;
60257;SDS011;46115;44.484;11.314;2022-07-29T03:24:32;6.68;;;4.55;;
60257;SDS011;46115;44.484;11.314;2022-07-29T03:28:35;6.10;;;4.68;;
60257;SDS011;46115;44.484;11.314;2022-07-29T03:32:38;6.35;;;4.75;;
60257;SDS011;46115;44.484;11.314;2022-07-29T03:36:40;8.55;;;4.55;;
60257;SDS011;46115;44.484;11.314;2022-07-29T03:40:46;7.82;;;4.68;;
60257;SDS011;46115;44.484;11.314;2022-07-29T03:44:53;8.10;;;4.88;;
60257;SDS011;46115;44.484;11.314;2022-07-29T03:48:58;7.60;;;5.15;;
60257;SDS011;46115;44.484;11.314;2022-07-29T03:53:02;7.72;;;5.00;;
60257;SDS011;46115;44.484;11.314;2022-07-29T03:57:07;7.55;;;5.10;;
60257;SDS011;46115;44.484;11.314;2022-07-29T04:01:12;5.57;;;4.85;;
60257;SDS011;46115;44.484;11.314;2022-07-29T04:05:16;7.20;;;4.85;;
60257;SDS011;46115;44.484;11.314;2022-07-29T04:09:19;6.63;;;4.85;;
60257;SDS011;46115;44.484;11.314;2022-07-29T04:13:23;9.85;;;4.90;;
60257;SDS011;46115;44.484;11.314;2022-07-29T04:17:25;8.80;;;4.85;;
60257;SDS011;46115;44.484;11.314;2022-07-29T04:21:28;6.95;;;4.95;;
60257;SDS011;46115;44.484;11.314;2022-07-29T04:25:30;5.72;;;4.90;;
60257;SDS011;46115;44.484;11.314;2022-07-29T04:29:34;7.13;;;4.68;;
60257;SDS011;46115;44.484;11.314;2022-07-29T04:33:37;6.97;;;5.13;;
60257;SDS011;46115;44.484;11.314;2022-07-29T04:37:40;6.43;;;4.80;;
60257;SDS011;46115;44.484;11.314;2022-07-29T04:41:42;4.90;;;4.40;;
60257;SDS011;46115;44.484;11.314;2022-07-29T04:45:46;6.95;;;4.75;;
60257;SDS011;46115;44.484;11.314;2022-07-29T04:49:48;6.65;;;4.55;;
60257;SDS011;46115;44.484;11.314;2022-07-29T04:53:51;5.78;;;4.32;;
60257;SDS011;46115;44.484;11.314;2022-07-29T04:57:53;5.45;;;4.00;;
60257;SDS011;46115;44.484;11.314;2022-07-29T05:01:57;7.32;;;4.40;;
60257;SDS011;46115;44.484;11.314;2022-07-29T05:06:00;6.13;;;4.45;;
60257;SDS011;46115;44.484;11.314;2022-07-29T05:10:02;6.65;;;3.88;;
60257;SDS011;46115;44.484;11.314;2022-07-29T05:14:05;6.63;;;3.95;;
60257;SDS011;46115;44.484;11.314;2022-07-29T05:18:09;6.60;;;4.20;;
60257;SDS011;46115;44.484;11.314;2022-07-29T05:22:12;7.63;;;4.10;;
60257;SDS011;46115;44.484;11.314;2022-07-29T05:26:14;6.55;;;4.30;;
60257;SDS011;46115;44.484;11.314;2022-07-29T05:30:17;5.05;;;3.95;;
60257;SDS011;46115;44.484;11.314;2022-07-29T05:34:23;4.32;;;3.70;;
60257;SDS011;46115;44.484;11.314;2022-07-29T05:38:26;4.95;;;3.80;;
60257;SDS011;46115;44.484;11.314;2022-07-29T05:42:29;5.95;;;4.03;;
60257;SDS011;46115;44.484;11.314;2022-07-29T05:46:32;8.00;;;3.83;;
60257;SDS011;46115;44.484;11.314;2022-07-29T05:50:35;7.90;;;3.80;;
60257;SDS011;46115;44.484;11.314;2022-07-29T05:54:38;7.13;;;3.65;;
60257;SDS011;46115;44.484;11.314;2022-07-29T05:58:40;8.07;;;4.05;;
60257;SDS011;46115;44.484;11.314;2022-07-29T06:02:44;5.82;;;3.67;;
60257;SDS011;46115;44.484;11.314;2022-07-29T06:06:48;6.32;;;3.78;;
60257;SDS011;46115;44.484;11.314;2022-07-29T06:10:50;5.72;;;3.65;;
60257;SDS011;46115;44.484;11.314;2022-07-29T06:14:53;5.90;;;3.75;;
60257;SDS011;46115;44.484;11.314;2022-07-29T06:18:55;4.35;;;3.65;;
60257;SDS011;46115;44.484;11.314;2022-07-29T06:22:59;7.00;;;3.78;;
60257;SDS011;46115;44.484;11.314;2022-07-29T06:27:05;8.73;;;5.32;;
60257;SDS011;46115;44.484;11.314;2022-07-29T06:31:07;8.40;;;5.35;;
60257;SDS011;46115;44.484;11.314;2022-07-29T06:35:10;7.97;;;4.90;;
60257;SDS011;46115;44.484;11.314;2022-07-29T06:39:14;10.70;;;5.55;;
60257;SDS011;46115;44.484;11.314;2022-07-29T06:43:16;6.82;;;5.30;;
60257;SDS011;46115;44.484;11.314;2022-07-29T06:47:19;12.35;;;4.68;;
60257;SDS011;46115;44.484;11.314;2022-07-29T06:51:21;8.40;;;4.80;;
60257;SDS011;46115;44.484;11.314;2022-07-29T06:55:26;11.43;;;4.20;;
60257;SDS011;46115;44.484;11.314;2022-07-29T06:59:28;5.60;;;4.00;;
60257;SDS011;46115;44.484;11.314;2022-07-29T07:03:31;9.15;;;3.78;;
60257;SDS011;46115;44.484;11.314;2022-07-29T07:07:34;10.60;;;4.30;;
60257;SDS011;46115;44.484;11.314;2022-07-29T07:11:38;7.60;;;4.20;;
60257;SDS011;46115;44.484;11.314;2022-07-29T07:15:41;7.93;;;4.15;;
60257;SDS011;46115;44.484;11.314;2022-07-29T07:19:43;7.30;;;3.60;;
60257;SDS011;46115;44.484;11.314;2022-07-29T07:23:46;7.63;;;3.25;;
60257;SDS011;46115;44.484;11.314;2022-07-29T07:27:50;6.65;;;3.50;;
60257;SDS011;46115;44.484;11.314;2022-07-29T07:31:52;5.00;;;3.03;;
60257;SDS011;46115;44.484;11.314;2022-07-29T07:35:55;6.70;;;3.40;;
60257;SDS011;46115;44.484;11.314;2022-07-29T07:39:58;8.73;;;3.40;;
60257;SDS011;46115;44.484;11.314;2022-07-29T07:44:02;6.47;;;3.25;;
60257;SDS011;46115;44.484;11.314;2022-07-29T07:48:05;5.90;;;3.10;;
60257;SDS011;46115;44.484;11.314;2022-07-29T07:52:11;8.52;;;3.38;;
60257;SDS011;46115;44.484;11.314;2022-07-29T07:56:13;7.97;;;3.50;;
60257;SDS011;46115;44.484;11.314;2022-07-29T08:00:18;7.70;;;3.22;;
60257;SDS011;46115;44.484;11.314;2022-07-29T08:04:20;7.18;;;3.30;;
60257;SDS011;46115;44.484;11.314;2022-07-29T08:08:23;12.68;;;3.30;;
60257;SDS011;46115;44.484;11.314;2022-07-29T08:12:27;11.18;;;3.97;;
60257;SDS011;46115;44.484;11.314;2022-07-29T08:16:31;7.53;;;3.40;;
60257;SDS011;46115;44.484;11.314;2022-07-29T08:20:33;6.78;;;3.60;;
60257;SDS011;46115;44.484;11.314;2022-07-29T08:24:36;6.78;;;3.50;;
60257;SDS011;46115;44.484;11.314;2022-07-29T08:28:44;5.25;;;3.60;;
60257;SDS011;46115;44.484;11.314;2022-07-29T08:32:52;8.23;;;3.63;;
60257;SDS011;46115;44.484;11.314;2022-07-29T08:36:54;9.23;;;3.78;;
60257;SDS011;46115;44.484;11.314;2022-07-29T08:40:57;6.90;;;3.60;;
60257;SDS011;46115;44.484;11.314;2022-07-29T08:45:00;7.57;;;3.67;;
60257;SDS011;46115;44.484;11.314;2022-07-29T08:49:05;6.05;;;3.88;;
60257;SDS011;46115;44.484;11.314;2022-07-29T08:53:08;8.15;;;4.22;;
60257;SDS011;46115;44.484;11.314;2022-07-29T08:57:13;7.63;;;4.10;;
60257;SDS011;46115;44.484;11.314;2022-07-29T09:01:21;8.48;;;3.95;;
60257;SDS011;46115;44.484;11.314;2022-07-29T09:05:27;5.90;;;3.55;;
60257;SDS011;46115;44.484;11.314;2022-07-29T09:09:30;5.80;;;3.67;;
60257;SDS011;46115;44.484;11.314;2022-07-29T09:13:33;6.68;;;3.60;;
60257;SDS011;46115;44.484;11.314;2022-07-29T09:17:39;9.80;;;3.65;;
60257;SDS011;46115;44.484;11.314;2022-07-29T09:21:44;6.90;;;3.40;;
60257;SDS011;46115;44.484;11.314;2022-07-29T09:25:59;7.00;;;3.50;;
60257;SDS011;46115;44.484;11.314;2022-07-29T09:30:08;7.15;;;3.70;;
60257;SDS011;46115;44.484;11.314;2022-07-29T09:34:13;8.98;;;4.25;;
60257;SDS011;46115;44.484;11.314;2022-07-29T09:38:18;5.53;;;3.70;;
60257;SDS011;46115;44.484;11.314;2022-07-29T09:42:27;8.80;;;4.60;;
60257;SDS011;46115;44.484;11.314;2022-07-29T09:46:33;8.68;;;4.18;;
60257;SDS011;46115;44.484;11.314;2022-07-29T09:50:37;5.72;;;4.15;;
60257;SDS011;46115;44.484;11.314;2022-07-29T09:54:42;9.20;;;3.83;;
60257;SDS011;46115;44.484;11.314;2022-07-29T09:58:44;9.68;;;4.15;;
60257;SDS011;46115;44.484;11.314;2022-07-29T10:02:47;6.45;;;3.83;;
60257;SDS011;46115;44.484;11.314;2022-07-29T10:06:56;7.50;;;3.90;;
60257;SDS011;46115;44.484;11.314;2022-07-29T10:11:09;8.68;;;3.72;;
60257;SDS011;46115;44.484;11.314;2022-07-29T10:15:13;6.93;;;3.90;;
60257;SDS011;46115;44.484;11.314;2022-07-29T10:19:17;8.13;;;3.50;;
60257;SDS011;46115;44.484;11.314;2022-07-29T10:23:19;5.65;;;3.78;;
60257;SDS011;46115;44.484;11.314;2022-07-29T10:27:24;7.55;;;4.10;;
60257;SDS011;46115;44.484;11.314;2022-07-29T10:31:27;8.68;;;3.83;;
60257;SDS011;46115;44.484;11.314;2022-07-29T10:35:51;9.48;;;4.03;;
60257;SDS011;46115;44.484;11.314;2022-07-29T10:40:07;7.60;;;4.18;;
60257;SDS011;46115;44.484;11.314;2022-07-29T10:44:41;6.28;;;4.00;;
60257;SDS011;46115;44.484;11.314;2022-07-29T10:53:06;8.80;;;4.18;;
60257;SDS011;46115;44.484;11.314;2022-07-29T10:57:13;7.18;;;3.85;;
60257;SDS011;46115;44.484;11.314;2022-07-29T11:01:29;8.88;;;3.88;;
60257;SDS011;46115;44.484;11.314;2022-07-29T11:19:21;7.70;;;4.15;;
60257;SDS011;46115;44.484;11.314;2022-07-29T11:23:24;8.20;;;4.18;;
60257;SDS011;46115;44.484;11.314;2022-07-29T11:27:30;7.18;;;3.90;;
60257;SDS011;46115;44.484;11.314;2022-07-29T11:31:40;6.90;;;4.15;;
60257;SDS011;46115;44.484;11.314;2022-07-29T11:35:45;12.13;;;4.25;;
60257;SDS011;46115;44.484;11.314;2022-07-29T11:40:15;5.50;;;3.60;;
60257;SDS011;46115;44.484;11.314;2022-07-29T11:44:19;8.73;;;3.45;;
60257;SDS011;46115;44.484;11.314;2022-07-29T11:48:58;9.38;;;4.15;;
60257;SDS011;46115;44.484;11.314;2022-07-29T11:53:10;5.93;;;4.28;;
60257;SDS011;46115;44.484;11.314;2022-07-29T11:57:14;7.50;;;3.92;;
60257;SDS011;46115;44.484;11.314;2022-07-29T12:01:19;7.65;;;4.05;;
60257;SDS011;46115;44.484;11.314;2022-07-29T12:05:35;10.82;;;3.55;;
60257;SDS011;46115;44.484;11.314;2022-07-29T12:09:41;6.60;;;4.00;;
60257;SDS011;46115;44.484;11.314;2022-07-29T12:13:51;6.57;;;3.90;;
60257;SDS011;46115;44.484;11.314;2022-07-29T12:17:54;5.57;;;3.58;;
60257;SDS011;46115;44.484;11.314;2022-07-29T12:21:57;5.38;;;3.58;;
60257;SDS011;46115;44.484;11.314;2022-07-29T12:26:03;6.95;;;3.83;;
60257;SDS011;46115;44.484;11.314;2022-07-29T12:30:07;6.53;;;3.70;;
60257;SDS011;46115;44.484;11.314;2022-07-29T12:34:11;5.05;;;3.42;;
60257;SDS011;46115;44.484;11.314;2022-07-29T12:38:15;8.40;;;4.47;;
60257;SDS011;46115;44.484;11.314;2022-07-29T12:42:19;6.82;;;3.85;;
60257;SDS011;46115;44.484;11.314;2022-07-29T12:46:22;4.78;;;3.90;;
60257;SDS011;46115;44.484;11.314;2022-07-29T12:50:26;9.63;;;3.72;;
60257;SDS011;46115;44.484;11.314;2022-07-29T12:54:28;8.55;;;3.70;;
60257;SDS011;46115;44.484;11.314;2022-07-29T12:58:34;6.63;;;3.63;;
60257;SDS011;46115;44.484;11.314;2022-07-29T13:02:38;4.75;;;3.65;;
60257;SDS011;46115;44.484;11.314;2022-07-29T13:06:43;6.60;;;3.60;;
60257;SDS011;46115;44.484;11.314;2022-07-29T13:10:46;9.93;;;3.78;;
60257;SDS011;46115;44.484;11.314;2022-07-29T13:14:50;6.50;;;3.65;;
60257;SDS011;46115;44.484;11.314;2022-07-29T13:19:05;5.97;;;3.88;;
60257;SDS011;46115;44.484;11.314;2022-07-29T13:23:12;6.22;;;3.53;;
60257;SDS011;46115;44.484;11.314;2022-07-29T13:27:17;4.97;;;3.83;;
60257;SDS011;46115;44.484;11.314;2022-07-29T13:31:21;9.63;;;3.40;;
60257;SDS011;46115;44.484;11.314;2022-07-29T13:35:24;5.32;;;3.65;;
60257;SDS011;46115;44.484;11.314;2022-07-29T13:39:30;6.30;;;3.83;;
60257;SDS011;46115;44.484;11.314;2022-07-29T13:43:32;5.35;;;3.38;;
60257;SDS011;46115;44.484;11.314;2022-07-29T13:47:37;8.65;;;3.90;;
60257;SDS011;46115;44.484;11.314;2022-07-29T13:51:39;8.40;;;3.70;;
60257;SDS011;46115;44.484;11.314;2022-07-29T13:55:42;6.65;;;3.70;;
60257;SDS011;46115;44.484;11.314;2022-07-29T13:59:44;7.05;;;3.83;;
60257;SDS011;46115;44.484;11.314;2022-07-29T14:03:48;10.75;;;4.60;;
60257;SDS011;46115;44.484;11.314;2022-07-29T14:07:51;6.78;;;3.83;;
60257;SDS011;46115;44.484;11.314;2022-07-29T14:11:53;5.18;;;4.07;;
60257;SDS011;46115;44.484;11.314;2022-07-29T14:15:56;4.40;;;3.72;;
60257;SDS011;46115;44.484;11.314;2022-07-29T14:20:00;6.63;;;4.10;;
60257;SDS011;46115;44.484;11.314;2022-07-29T14:24:03;5.78;;;4.07;;
60257;SDS011;46115;44.484;11.314;2022-07-29T14:28:06;7.38;;;4.13;;
60257;SDS011;46115;44.484;11.314;2022-07-29T14:32:08;9.05;;;4.07;;
60257;SDS011;46115;44.484;11.314;2022-07-29T14:36:13;6.00;;;3.95;;
60257;SDS011;46115;44.484;11.314;2022-07-29T14:40:16;8.88;;;4.03;;
60257;SDS011;46115;44.484;11.314;2022-07-29T14:44:18;8.10;;;3.92;;
60257;SDS011;46115;44.484;11.314;2022-07-29T14:48:21;5.15;;;3.95;;
60257;SDS011;46115;44.484;11.314;2022-07-29T14:52:24;6.47;;;4.28;;
60257;SDS011;46115;44.484;11.314;2022-07-29T14:56:27;6.38;;;4.35;;
60257;SDS011;46115;44.484;11.314;2022-07-29T15:00:30;9.05;;;3.95;;
60257;SDS011;46115;44.484;11.314;2022-07-29T15:04:34;6.65;;;4.10;;
60257;SDS011;46115;44.484;11.314;2022-07-29T15:08:38;6.57;;;4.20;;
60257;SDS011;46115;44.484;11.314;2022-07-29T15:12:41;9.80;;;4.40;;
60257;SDS011;46115;44.484;11.314;2022-07-29T15:16:43;8.80;;;4.38;;
60257;SDS011;46115;44.484;11.314;2022-07-29T15:20:46;6.93;;;4.40;;
60257;SDS011;46115;44.484;11.314;2022-07-29T15:24:50;8.55;;;4.40;;
60257;SDS011;46115;44.484;11.314;2022-07-29T15:28:52;6.65;;;4.18;;
60257;SDS011;46115;44.484;11.314;2022-07-29T15:32:56;4.45;;;3.92;;
60257;SDS011;46115;44.484;11.314;2022-07-29T15:36:58;7.80;;;4.40;;
60257;SDS011;46115;44.484;11.314;2022-07-29T15:41:02;7.57;;;4.15;;
60257;SDS011;46115;44.484;11.314;2022-07-29T15:45:05;8.50;;;4.30;;
60257;SDS011;46115;44.484;11.314;2022-07-29T15:49:08;7.82;;;4.63;;
60257;SDS011;46115;44.484;11.314;2022-07-29T15:53:11;10.32;;;4.75;;
60257;SDS011;46115;44.484;11.314;2022-07-29T15:57:15;8.02;;;4.43;;
60257;SDS011;46115;44.484;11.314;2022-07-29T16:01:18;12.77;;;4.80;;
60257;SDS011;46115;44.484;11.314;2022-07-29T16:05:20;6.07;;;4.50;;
60257;SDS011;46115;44.484;11.314;2022-07-29T16:09:23;13.85;;;4.85;;
60257;SDS011;46115;44.484;11.314;2022-07-29T16:13:27;11.23;;;4.60;;
60257;SDS011;46115;44.484;11.314;2022-07-29T16:17:29;11.73;;;5.10;;
60257;SDS011;46115;44.484;11.314;2022-07-29T16:21:32;9.40;;;4.47;;
60257;SDS011;46115;44.484;11.314;2022-07-29T16:25:35;9.95;;;4.57;;
60257;SDS011;46115;44.484;11.314;2022-07-29T16:29:38;8.90;;;4.20;;
60257;SDS011;46115;44.484;11.314;2022-07-29T16:33:41;5.75;;;3.83;;
60257;SDS011;46115;44.484;11.314;2022-07-29T16:37:43;6.30;;;4.05;;
60257;SDS011;46115;44.484;11.314;2022-07-29T16:41:46;7.10;;;4.00;;
60257;SDS011;46115;44.484;11.314;2022-07-29T16:45:50;6.70;;;4.10;;
60257;SDS011;46115;44.484;11.314;2022-07-29T16:49:52;10.18;;;4.00;;
60257;SDS011;46115;44.484;11.314;2022-07-29T16:53:55;9.10;;;3.90;;
60257;SDS011;46115;44.484;11.314;2022-07-29T16:57:57;9.18;;;4.25;;
60257;SDS011;46115;44.484;11.314;2022-07-29T17:02:01;9.02;;;4.22;;
60257;SDS011;46115;44.484;11.314;2022-07-29T17:06:04;10.10;;;4.22;;
60257;SDS011;46115;44.484;11.314;2022-07-29T17:10:07;9.98;;;4.03;;
60257;SDS011;46115;44.484;11.314;2022-07-29T17:14:10;7.47;;;4.18;;
60257;SDS011;46115;44.484;11.314;2022-07-29T17:18:14;6.22;;;3.90;;
60257;SDS011;46115;44.484;11.314;2022-07-29T17:22:17;8.18;;;4.20;;
60257;SDS011;46115;44.484;11.314;2022-07-29T17:26:20;8.27;;;4.80;;
60257;SDS011;46115;44.484;11.314;2022-07-29T17:30:22;8.80;;;4.35;;
60257;SDS011;46115;44.484;11.314;2022-07-29T17:34:26;11.40;;;4.78;;
60257;SDS011;46115;44.484;11.314;2022-07-29T17:38:28;9.68;;;4.30;;
60257;SDS011;46115;44.484;11.314;2022-07-29T17:42:31;8.52;;;4.05;;
60257;SDS011;46115;44.484;11.314;2022-07-29T17:46:33;10.57;;;5.22;;
60257;SDS011;46115;44.484;11.314;2022-07-29T17:50:37;9.30;;;4.30;;
60257;SDS011;46115;44.484;11.314;2022-07-29T17:54:40;7.88;;;4.03;;
60257;SDS011;46115;44.484;11.314;2022-07-29T17:58:42;10.00;;;4.22;;
60257;SDS011;46115;44.484;11.314;2022-07-29T18:02:47;7.10;;;4.00;;
60257;SDS011;46115;44.484;11.314;2022-07-29T18:06:51;6.90;;;4.30;;
60257;SDS011;46115;44.484;11.314;2022-07-29T18:10:53;7.07;;;4.35;;
60257;SDS011;46115;44.484;11.314;2022-07-29T18:14:56;9.18;;;4.07;;
60257;SDS011;46115;44.484;11.314;2022-07-29T18:18:58;6.68;;;3.95;;
60257;SDS011;46115;44.484;11.314;2022-07-29T18:23:02;6.85;;;4.22;;
60257;SDS011;46115;44.484;11.314;2022-07-29T18:27:05;6.85;;;4.20;;
60257;SDS011;46115;44.484;11.314;2022-07-29T18:31:08;9.75;;;4.50;;
60257;SDS011;46115;44.484;11.314;2022-07-29T18:35:11;8.55;;;4.40;;
60257;SDS011;46115;44.484;11.314;2022-07-29T18:39:15;9.00;;;4.38;;
60257;SDS011;46115;44.484;11.314;2022-07-29T18:43:17;7.70;;;4.18;;
60257;SDS011;46115;44.484;11.314;2022-07-29T18:47:20;8.05;;;4.40;;
60257;SDS011;46115;44.484;11.314;2022-07-29T18:51:22;9.75;;;4.10;;
60257;SDS011;46115;44.484;11.314;2022-07-29T18:55:26;7.88;;;4.40;;
60257;SDS011;46115;44.484;11.314;2022-07-29T18:59:28;7.13;;;4.10;;
60257;SDS011;46115;44.484;11.314;2022-07-29T19:03:31;9.40;;;4.47;;
60257;SDS011;46115;44.484;11.314;2022-07-29T19:07:34;6.38;;;4.10;;
60257;SDS011;46115;44.484;11.314;2022-07-29T19:11:39;5.90;;;3.85;;
60257;SDS011;46115;44.484;11.314;2022-07-29T19:15:41;5.65;;;4.07;;
60257;SDS011;46115;44.484;11.314;2022-07-29T19:19:45;7.15;;;4.57;;
60257;SDS011;46115;44.484;11.314;2022-07-29T19:23:48;5.88;;;4.60;;
60257;SDS011;46115;44.484;11.314;2022-07-29T19:27:52;9.40;;;4.70;;
60257;SDS011;46115;44.484;11.314;2022-07-29T19:31:55;9.23;;;4.68;;
60257;SDS011;46115;44.484;11.314;2022-07-29T22:06:08;13.93;;;10.48;;
60257;SDS011;46115;44.484;11.314;2022-07-29T22:10:11;14.05;;;11.23;;
60257;SDS011;46115;44.484;11.314;2022-07-29T22:14:13;11.18;;;10.05;;
60257;SDS011;46115;44.484;11.314;2022-07-29T22:18:18;13.65;;;11.55;;
60257;SDS011;46115;44.484;11.314;2022-07-29T22:22:21;15.15;;;10.40;;
60257;SDS011;46115;44.484;11.314;2022-07-29T22:26:24;13.88;;;10.98;;
60257;SDS011;46115;44.484;11.314;2022-07-29T22:30:26;12.82;;;10.30;;
60257;SDS011;46115;44.484;11.314;2022-07-29T22:34:29;11.52;;;10.15;;
60257;SDS011;46115;44.484;11.314;2022-07-29T22:38:33;12.32;;;11.02;;
60257;SDS011;46115;44.484;11.314;2022-07-29T22:42:35;13.00;;;10.73;;
60257;SDS011;46115;44.484;11.314;2022-07-29T22:46:38;13.60;;;11.48;;
60257;SDS011;46115;44.484;11.314;2022-07-29T22:50:40;11.60;;;10.38;;
60257;SDS011;46115;44.484;11.314;2022-07-29T22:54:44;11.85;;;10.57;;
60257;SDS011;46115;44.484;11.314;2022-07-29T22:58:46;12.68;;;11.20;;
60257;SDS011;46115;44.484;11.314;2022-07-29T23:02:49;13.10;;;11.27;;
60257;SDS011;46115;44.484;11.314;2022-07-29T23:06:52;12.55;;;10.57;;
60257;SDS011;46115;44.484;11.314;2022-07-29T23:10:55;16.00;;;11.50;;
60257;SDS011;46115;44.484;11.314;2022-07-29T23:14:58;13.80;;;12.38;;
60257;SDS011;46115;44.484;11.314;2022-07-29T23:19:01;13.95;;;11.60;;
60257;SDS011;46115;44.484;11.314;2022-07-29T23:23:03;17.20;;;12.80;;
60257;SDS011;46115;44.484;11.314;2022-07-29T23:27:07;14.65;;;12.07;;
60257;SDS011;46115;44.484;11.314;2022-07-29T23:31:10;13.50;;;12.10;;
60257;SDS011;46115;44.484;11.314;2022-07-29T23:35:13;12.65;;;11.00;;
60257;SDS011;46115;44.484;11.314;2022-07-29T23:39:15;12.75;;;10.77;;
60257;SDS011;46115;44.484;11.314;2022-07-29T23:43:19;11.45;;;9.00;;
60257;SDS011;46115;44.484;11.314;2022-07-29T23:47:22;10.73;;;9.48;;
60257;SDS011;46115;44.484;11.314;2022-07-29T23:51:24;12.25;;;10.95;;
60257;SDS011;46115;44.484;11.314;2022-07-29T23:55:28;12.55;;;8.93;;
60257;SDS011;46115;44.484;11.314;2022-07-29T23:59:32;11.13;;;8.85;;
